createdAt,value
2024-01-28T00:02:46.790Z,61.68
2024-01-28T00:07:43.692Z,61.43
2024-01-28T00:12:40.571Z,61.35
2024-01-28T00:17:37.551Z,61.29
2024-01-28T00:22:35.067Z,61.51
2024-01-28T00:27:31.900Z,62.04
2024-01-28T00:32:28.783Z,61.65
2024-01-28T00:37:25.668Z,62.05
2024-01-28T00:42:24.266Z,62.17
2024-01-28T00:47:21.119Z,62.70
2024-01-28T00:52:18.097Z,62.81
2024-01-28T00:57:15.017Z,62.21
2024-01-28T01:02:12.652Z,63.00
2024-01-28T01:07:10.233Z,62.86
2024-01-28T01:12:07.330Z,62.90
2024-01-28T01:17:04.780Z,63.01
2024-01-28T01:22:03.245Z,63.27
2024-01-28T01:27:03.285Z,63.06
2024-01-28T01:32:00.250Z,62.71
2024-01-28T01:36:57.122Z,62.65
2024-01-28T01:41:54.660Z,63.07
2024-01-28T01:46:51.591Z,62.68
2024-01-28T01:51:49.218Z,63.05
2024-01-28T01:56:46.289Z,63.35
2024-01-28T02:01:44.250Z,63.27
2024-01-28T02:06:41.405Z,63.10
2024-01-28T02:11:38.479Z,63.21
2024-01-28T02:16:35.326Z,63.65
2024-01-28T02:21:33.077Z,63.12
2024-01-28T02:26:30.588Z,63.28
2024-01-28T02:31:27.403Z,63.02
2024-01-28T02:36:24.258Z,63.21
2024-01-28T02:41:21.232Z,63.74
2024-01-28T02:46:18.805Z,63.12
2024-01-28T02:51:15.781Z,62.84
2024-01-28T02:56:12.712Z,63.01
2024-01-28T03:01:09.547Z,62.92
2024-01-28T03:06:07.259Z,62.93
2024-01-28T03:11:05.692Z,62.95
2024-01-28T03:16:04.076Z,63.09
2024-01-28T03:21:00.909Z,63.03
2024-01-28T03:25:58.647Z,62.97
2024-01-28T03:30:55.496Z,63.21
2024-01-28T03:35:52.394Z,63.33
2024-01-28T03:40:49.878Z,63.34
2024-01-28T03:45:47.435Z,62.97
2024-01-28T03:50:44.271Z,63.36
2024-01-28T03:55:41.232Z,63.46
2024-01-28T04:00:38.143Z,62.97
2024-01-28T04:05:36.229Z,62.92
2024-01-28T04:10:33.133Z,63.37
2024-01-28T04:15:30.143Z,62.95
2024-01-28T04:20:27.051Z,63.46
2024-01-28T04:25:24.950Z,63.30
2024-01-28T04:30:22.338Z,63.62
2024-01-28T04:35:19.379Z,63.19
2024-01-28T04:40:16.510Z,63.15
2024-01-28T04:45:14.236Z,63.40
2024-01-28T04:50:11.483Z,63.51
2024-01-28T04:55:10.475Z,63.78
2024-01-28T05:00:10.870Z,63.41
2024-01-28T05:05:09.242Z,63.28
2024-01-28T05:10:09.399Z,63.82
2024-01-28T05:15:09.080Z,63.82
2024-01-28T05:20:09.655Z,63.77
2024-01-28T05:25:09.892Z,64.13
2024-01-28T05:30:07.894Z,64.36
2024-01-28T05:35:05.527Z,64.68
2024-01-28T05:40:03.222Z,64.63
2024-01-28T05:45:00.819Z,64.41
2024-01-28T05:49:57.865Z,64.81
2024-01-28T05:54:55.087Z,64.77
2024-01-28T05:59:54.606Z,65.09
2024-01-28T06:04:52.547Z,65.14
2024-01-28T06:09:52.986Z,64.96
2024-01-28T06:14:53.689Z,64.95
2024-01-28T06:19:53.084Z,65.31
2024-01-28T06:24:52.291Z,65.03
2024-01-28T06:29:53.380Z,65.17
2024-01-28T06:34:50.628Z,65.00
2024-01-28T06:39:52.048Z,64.93
2024-01-28T06:44:56.396Z,64.58
2024-01-28T06:49:53.966Z,64.29
2024-01-28T06:54:53.838Z,64.33
2024-01-28T06:59:54.183Z,64.27
2024-01-28T07:04:53.507Z,64.14
2024-01-28T07:09:50.726Z,63.79
2024-01-28T07:14:48.239Z,63.69
2024-01-28T07:19:47.918Z,61.72
2024-01-28T07:24:46.110Z,62.29
2024-01-28T07:29:45.570Z,62.33
2024-01-28T07:34:43.115Z,61.81
2024-01-28T07:39:46.672Z,61.58
2024-01-28T07:44:47.827Z,61.11
2024-01-28T07:49:45.583Z,61.13
2024-01-28T07:54:42.807Z,60.48
2024-01-28T07:59:41.321Z,60.20
2024-01-28T08:04:40.805Z,60.22
2024-01-28T08:09:38.241Z,60.15
2024-01-28T08:14:35.531Z,59.71
2024-01-28T08:19:32.808Z,60.02
2024-01-28T08:24:30.979Z,60.57
2024-01-28T08:29:28.633Z,59.86
2024-01-28T08:34:25.777Z,59.63
2024-01-28T08:39:24.921Z,59.23
2024-01-28T08:44:25.822Z,58.52
2024-01-28T08:49:23.046Z,59.33
2024-01-28T08:54:21.431Z,59.14
2024-01-28T08:59:18.592Z,58.85
2024-01-28T09:04:16.580Z,58.81
2024-01-28T09:09:15.566Z,59.40
2024-01-28T09:14:13.733Z,59.36
2024-01-28T09:19:15.968Z,59.42
2024-01-28T09:24:15.912Z,59.11
2024-01-28T09:29:13.261Z,59.02
2024-01-28T09:34:11.267Z,59.18
2024-01-28T09:39:11.353Z,58.89
2024-01-28T09:44:11.051Z,58.75
2024-01-28T09:49:17.197Z,58.20
2024-01-28T09:54:31.712Z,57.93
2024-01-28T09:59:31.547Z,57.99
2024-01-28T10:04:35.178Z,57.93
2024-01-28T10:10:13.272Z,57.53
2024-01-28T10:15:28.107Z,57.57
2024-01-28T10:20:26.817Z,57.57
2024-01-28T10:25:24.308Z,57.31
2024-01-28T10:30:28.857Z,57.48
2024-01-28T10:35:27.467Z,57.21
2024-01-28T10:40:31.462Z,57.32
2024-01-28T10:45:29.130Z,57.00
2024-01-28T10:50:32.421Z,57.01
2024-01-28T10:55:31.244Z,57.12
2024-01-28T11:00:29.616Z,56.78
2024-01-28T11:05:28.601Z,56.83
2024-01-28T11:10:28.427Z,56.76
2024-01-28T11:15:26.887Z,57.11
2024-01-28T11:20:29.208Z,56.90
2024-01-28T11:25:28.842Z,56.49
2024-01-28T11:30:26.241Z,56.45
2024-01-28T11:35:26.089Z,56.20
2024-01-28T11:40:24.495Z,56.20
2024-01-28T11:45:25.551Z,55.90
2024-01-28T11:50:22.578Z,55.83
2024-01-28T11:55:19.707Z,55.31
2024-01-28T12:00:17.261Z,55.31
2024-01-28T12:05:14.963Z,54.94
2024-01-28T12:10:14.079Z,54.77
2024-01-28T12:15:14.658Z,54.55
2024-01-28T12:20:21.608Z,54.60
2024-01-28T12:25:23.403Z,54.40
2024-01-28T12:30:22.008Z,54.58
2024-01-28T12:35:22.264Z,54.44
2024-01-28T12:40:19.387Z,54.59
2024-01-28T12:45:16.657Z,54.21
2024-01-28T12:50:14.081Z,54.35
2024-01-28T12:55:12.312Z,54.44
2024-01-28T13:00:11.119Z,54.57
2024-01-28T13:05:11.280Z,54.37
2024-01-28T13:10:09.879Z,54.21
2024-01-28T13:15:08.633Z,54.15
2024-01-28T13:20:08.018Z,54.36
2024-01-28T13:25:06.269Z,54.21
2024-01-28T13:30:04.555Z,54.07
2024-01-28T13:35:03.144Z,54.41
2024-01-28T13:40:00.241Z,54.62
2024-01-28T13:44:57.316Z,54.96
2024-01-28T13:49:56.129Z,54.65
2024-01-28T13:54:56.448Z,55.32
2024-01-28T13:59:53.527Z,55.39
2024-01-28T14:04:50.370Z,55.31
2024-01-28T14:09:47.440Z,56.22
2024-01-28T14:14:45.730Z,57.56
2024-01-28T14:19:43.096Z,58.26
2024-01-28T14:24:40.347Z,62.89
2024-01-28T14:29:43.661Z,65.85
2024-01-28T14:34:41.566Z,67.35
2024-01-28T14:39:39.013Z,67.69
2024-01-28T14:44:36.009Z,66.75
2024-01-28T14:49:33.304Z,66.01
2024-01-28T14:54:33.523Z,66.36
2024-01-28T14:59:30.716Z,65.97
2024-01-28T15:04:34.091Z,65.68
2024-01-28T15:09:31.949Z,66.95
2024-01-28T15:14:29.035Z,68.05
2024-01-28T15:19:26.118Z,67.97
2024-01-28T15:24:26.285Z,69.07
2024-01-28T15:29:25.071Z,69.02
2024-01-28T15:34:22.407Z,70.12
2024-01-28T15:39:22.602Z,69.77
2024-01-28T15:44:19.792Z,69.02
2024-01-28T15:49:19.293Z,68.97
2024-01-28T15:54:18.064Z,67.83
2024-01-28T15:59:15.401Z,68.06
2024-01-28T16:04:12.768Z,67.40
2024-01-28T16:09:10.896Z,67.93
2024-01-28T16:14:08.091Z,66.95
2024-01-28T16:19:06.639Z,68.33
2024-01-28T16:24:03.938Z,69.29
2024-01-28T16:29:04.172Z,70.34
2024-01-28T16:34:01.135Z,70.56
2024-01-28T16:38:58.162Z,70.17
2024-01-28T16:43:55.096Z,69.19
2024-01-28T16:48:53.107Z,69.09
2024-01-28T16:53:50.136Z,70.37
2024-01-28T16:58:47.407Z,70.69
2024-01-28T17:03:44.653Z,69.69
2024-01-28T17:08:42.396Z,68.46
2024-01-28T17:13:40.368Z,67.67
2024-01-28T17:18:41.704Z,67.74
2024-01-28T17:23:38.860Z,68.56
2024-01-28T17:28:37.624Z,69.17
2024-01-28T17:33:34.651Z,69.07
2024-01-28T17:38:31.624Z,68.32
2024-01-28T17:43:28.846Z,68.56
2024-01-28T17:48:29.382Z,68.85
2024-01-28T17:53:26.566Z,68.13
2024-01-28T17:58:23.639Z,68.56
2024-01-28T18:03:21.197Z,68.72
2024-01-28T18:08:20.420Z,68.66
2024-01-28T18:13:17.550Z,69.42
2024-01-28T18:18:14.903Z,69.39
2024-01-28T18:23:12.028Z,71.32
2024-01-28T18:28:16.071Z,71.10
2024-01-28T18:33:16.657Z,71.23
2024-01-28T18:38:15.559Z,71.61
2024-01-28T18:43:13.328Z,71.14
2024-01-28T18:48:13.119Z,70.54
2024-01-28T18:53:14.686Z,71.29
2024-01-28T18:58:19.164Z,71.93
2024-01-28T19:03:17.330Z,73.22
2024-01-28T19:08:23.577Z,73.05
2024-01-28T19:13:29.400Z,72.37
2024-01-28T19:18:28.567Z,71.61
2024-01-28T19:23:26.603Z,70.45
2024-01-28T19:28:24.510Z,69.56
2024-01-28T19:33:23.232Z,69.50
2024-01-28T19:38:22.736Z,69.13
2024-01-28T19:43:20.482Z,68.18
2024-01-28T19:48:18.707Z,68.84
2024-01-28T19:53:15.967Z,68.81
2024-01-28T19:58:18.355Z,68.42
2024-01-28T20:03:21.163Z,68.35
2024-01-28T20:08:22.663Z,68.09
2024-01-28T20:13:22.641Z,68.67
2024-01-28T20:18:22.935Z,67.58
2024-01-28T20:23:21.869Z,67.97
2024-01-28T20:28:19.071Z,67.86
2024-01-28T20:33:17.037Z,66.41
2024-01-28T20:38:15.264Z,66.27
2024-01-28T20:43:13.003Z,65.45
2024-01-28T20:48:10.258Z,65.71
2024-01-28T20:53:07.306Z,65.30
2024-01-28T20:58:04.733Z,64.98
2024-01-28T21:03:02.583Z,64.20
2024-01-28T21:08:00.057Z,64.39
2024-01-28T21:12:57.168Z,64.36
2024-01-28T21:17:56.071Z,64.14
2024-01-28T21:22:55.106Z,64.97
2024-01-28T21:27:52.920Z,65.26
2024-01-28T21:32:50.105Z,65.04
2024-01-28T21:37:47.279Z,65.68
2024-01-28T21:42:45.405Z,66.36
2024-01-28T21:47:42.827Z,66.38
2024-01-28T21:52:40.083Z,66.89
2024-01-28T21:57:37.190Z,67.22
2024-01-28T22:02:35.706Z,67.46
2024-01-28T22:07:32.876Z,68.31
2024-01-28T22:12:29.979Z,68.57
2024-01-28T22:17:27.157Z,69.16
2024-01-28T22:22:25.061Z,69.58
2024-01-28T22:27:22.858Z,70.10
2024-01-28T22:32:20.045Z,70.27
2024-01-28T22:37:19.176Z,71.01
2024-01-28T22:42:17.932Z,71.33
2024-01-28T22:47:15.519Z,71.42
2024-01-28T22:52:12.835Z,71.45
2024-01-28T22:57:10.501Z,72.02
2024-01-28T23:02:08.344Z,72.16
2024-01-28T23:07:05.429Z,72.27
2024-01-28T23:12:02.355Z,72.71
2024-01-28T23:16:59.451Z,72.87
2024-01-28T23:21:57.336Z,72.60
2024-01-28T23:26:54.606Z,72.33
2024-01-28T23:31:51.572Z,71.96
2024-01-28T23:36:48.611Z,71.96
2024-01-28T23:41:46.189Z,72.21
2024-01-28T23:46:43.278Z,71.36
2024-01-28T23:51:40.521Z,70.62
2024-01-28T23:56:37.618Z,70.43
